sensor_id;sensor_type;location;lat;lon;timestamp;P1;durP1;ratioP1;P2;durP2;ratioP2
18732;SDS011;9495;51.210;2.934;2022-10-16T00:01:06;2.70;;;2.28;;
18732;SDS011;9495;51.210;2.934;2022-10-16T00:03:35;3.90;;;2.35;;
18732;SDS011;9495;51.210;2.934;2022-10-16T00:06:04;4.72;;;2.53;;
18732;SDS011;9495;51.210;2.934;2022-10-16T00:08:33;4.88;;;2.50;;
18732;SDS011;9495;51.210;2.934;2022-10-16T00:11:02;5.22;;;2.47;;
18732;SDS011;9495;51.210;2.934;2022-10-16T00:13:33;3.25;;;2.28;;
18732;SDS011;9495;51.210;2.934;2022-10-16T00:16:02;5.05;;;2.30;;
18732;SDS011;9495;51.210;2.934;2022-10-16T00:18:33;4.40;;;2.20;;
18732;SDS011;9495;51.210;2.934;2022-10-16T00:21:02;3.80;;;2.10;;
18732;SDS011;9495;51.210;2.934;2022-10-16T00:23:31;5.43;;;2.35;;
18732;SDS011;9495;51.210;2.934;2022-10-16T00:25:59;3.80;;;2.22;;
18732;SDS011;9495;51.210;2.934;2022-10-16T00:28:30;3.75;;;2.00;;
18732;SDS011;9495;51.210;2.934;2022-10-16T00:30:58;6.15;;;2.30;;
18732;SDS011;9495;51.210;2.934;2022-10-16T00:33:29;3.80;;;1.98;;
18732;SDS011;9495;51.210;2.934;2022-10-16T00:35:59;3.83;;;2.17;;
18732;SDS011;9495;51.210;2.934;2022-10-16T00:38:28;3.97;;;1.75;;
18732;SDS011;9495;51.210;2.934;2022-10-16T00:40:56;4.97;;;1.75;;
18732;SDS011;9495;51.210;2.934;2022-10-16T00:43:38;2.92;;;2.10;;
18732;SDS011;9495;51.210;2.934;2022-10-16T00:46:10;3.90;;;1.67;;
18732;SDS011;9495;51.210;2.934;2022-10-16T00:48:45;2.67;;;1.45;;
18732;SDS011;9495;51.210;2.934;2022-10-16T00:51:19;3.42;;;1.60;;
18732;SDS011;9495;51.210;2.934;2022-10-16T00:53:52;1.85;;;1.52;;
18732;SDS011;9495;51.210;2.934;2022-10-16T00:56:22;2.03;;;1.70;;
18732;SDS011;9495;51.210;2.934;2022-10-16T00:58:50;2.55;;;1.70;;
18732;SDS011;9495;51.210;2.934;2022-10-16T01:01:19;4.85;;;1.60;;
18732;SDS011;9495;51.210;2.934;2022-10-16T01:03:47;3.55;;;1.50;;
18732;SDS011;9495;51.210;2.934;2022-10-16T01:06:21;3.65;;;1.50;;
18732;SDS011;9495;51.210;2.934;2022-10-16T01:08:55;3.25;;;1.17;;
18732;SDS011;9495;51.210;2.934;2022-10-16T01:11:33;3.72;;;1.60;;
18732;SDS011;9495;51.210;2.934;2022-10-16T01:14:07;2.65;;;1.52;;
18732;SDS011;9495;51.210;2.934;2022-10-16T01:16:43;3.50;;;1.33;;
18732;SDS011;9495;51.210;2.934;2022-10-16T01:19:17;2.97;;;1.17;;
18732;SDS011;9495;51.210;2.934;2022-10-16T01:21:53;5.10;;;1.33;;
18732;SDS011;9495;51.210;2.934;2022-10-16T01:24:27;4.07;;;1.63;;
18732;SDS011;9495;51.210;2.934;2022-10-16T01:27:04;5.07;;;1.50;;
18732;SDS011;9495;51.210;2.934;2022-10-16T01:29:36;5.47;;;1.20;;
18732;SDS011;9495;51.210;2.934;2022-10-16T01:32:10;3.38;;;1.25;;
18732;SDS011;9495;51.210;2.934;2022-10-16T01:34:45;2.78;;;1.27;;
18732;SDS011;9495;51.210;2.934;2022-10-16T01:37:18;1.80;;;1.02;;
18732;SDS011;9495;51.210;2.934;2022-10-16T01:39:54;2.47;;;1.40;;
18732;SDS011;9495;51.210;2.934;2022-10-16T01:42:28;2.15;;;1.27;;
18732;SDS011;9495;51.210;2.934;2022-10-16T01:45:01;4.10;;;1.50;;
18732;SDS011;9495;51.210;2.934;2022-10-16T01:47:33;3.33;;;1.30;;
18732;SDS011;9495;51.210;2.934;2022-10-16T01:50:04;1.73;;;1.25;;
18732;SDS011;9495;51.210;2.934;2022-10-16T01:52:34;2.67;;;1.27;;
18732;SDS011;9495;51.210;2.934;2022-10-16T01:55:06;4.90;;;1.35;;
18732;SDS011;9495;51.210;2.934;2022-10-16T01:57:38;4.50;;;1.35;;
18732;SDS011;9495;51.210;2.934;2022-10-16T02:00:12;4.93;;;1.33;;
18732;SDS011;9495;51.210;2.934;2022-10-16T02:02:42;2.78;;;1.52;;
18732;SDS011;9495;51.210;2.934;2022-10-16T02:05:14;4.70;;;1.77;;
18732;SDS011;9495;51.210;2.934;2022-10-16T02:07:46;2.90;;;1.33;;
18732;SDS011;9495;51.210;2.934;2022-10-16T02:10:15;5.32;;;1.40;;
18732;SDS011;9495;51.210;2.934;2022-10-16T02:12:45;3.30;;;1.70;;
18732;SDS011;9495;51.210;2.934;2022-10-16T02:15:18;2.97;;;1.52;;
18732;SDS011;9495;51.210;2.934;2022-10-16T02:17:46;3.05;;;1.70;;
18732;SDS011;9495;51.210;2.934;2022-10-16T02:20:15;3.17;;;1.25;;
18732;SDS011;9495;51.210;2.934;2022-10-16T02:22:45;2.55;;;1.30;;
18732;SDS011;9495;51.210;2.934;2022-10-16T02:25:17;5.22;;;1.67;;
18732;SDS011;9495;51.210;2.934;2022-10-16T02:27:51;3.58;;;1.30;;
18732;SDS011;9495;51.210;2.934;2022-10-16T02:30:24;3.53;;;1.30;;
18732;SDS011;9495;51.210;2.934;2022-10-16T02:32:55;2.72;;;1.55;;
18732;SDS011;9495;51.210;2.934;2022-10-16T02:35:26;3.05;;;1.48;;
18732;SDS011;9495;51.210;2.934;2022-10-16T02:37:56;4.25;;;1.75;;
18732;SDS011;9495;51.210;2.934;2022-10-16T02:40:25;2.80;;;1.60;;
18732;SDS011;9495;51.210;2.934;2022-10-16T02:42:56;2.78;;;1.40;;
18732;SDS011;9495;51.210;2.934;2022-10-16T02:45:24;5.30;;;1.73;;
18732;SDS011;9495;51.210;2.934;2022-10-16T02:47:52;7.15;;;1.52;;
18732;SDS011;9495;51.210;2.934;2022-10-16T02:50:20;3.22;;;1.42;;
18732;SDS011;9495;51.210;2.934;2022-10-16T02:52:50;3.40;;;1.40;;
18732;SDS011;9495;51.210;2.934;2022-10-16T02:55:19;3.70;;;1.63;;
18732;SDS011;9495;51.210;2.934;2022-10-16T02:57:47;2.70;;;1.20;;
18732;SDS011;9495;51.210;2.934;2022-10-16T03:00:17;3.15;;;1.35;;
18732;SDS011;9495;51.210;2.934;2022-10-16T03:02:46;3.83;;;1.40;;
18732;SDS011;9495;51.210;2.934;2022-10-16T03:05:14;3.60;;;1.38;;
18732;SDS011;9495;51.210;2.934;2022-10-16T03:07:43;3.13;;;1.25;;
18732;SDS011;9495;51.210;2.934;2022-10-16T03:10:11;6.30;;;1.67;;
18732;SDS011;9495;51.210;2.934;2022-10-16T03:12:40;3.60;;;1.65;;
18732;SDS011;9495;51.210;2.934;2022-10-16T03:15:08;4.72;;;1.58;;
18732;SDS011;9495;51.210;2.934;2022-10-16T03:17:38;4.82;;;1.45;;
18732;SDS011;9495;51.210;2.934;2022-10-16T03:20:07;3.33;;;1.33;;
18732;SDS011;9495;51.210;2.934;2022-10-16T03:22:35;4.28;;;1.27;;
18732;SDS011;9495;51.210;2.934;2022-10-16T03:25:04;5.18;;;1.50;;
18732;SDS011;9495;51.210;2.934;2022-10-16T03:27:33;3.13;;;1.73;;
18732;SDS011;9495;51.210;2.934;2022-10-16T03:30:01;5.00;;;1.20;;
18732;SDS011;9495;51.210;2.934;2022-10-16T03:32:29;6.75;;;1.55;;
18732;SDS011;9495;51.210;2.934;2022-10-16T03:34:59;3.28;;;1.20;;
18732;SDS011;9495;51.210;2.934;2022-10-16T03:37:28;4.00;;;1.40;;
18732;SDS011;9495;51.210;2.934;2022-10-16T03:39:56;3.45;;;1.38;;
18732;SDS011;9495;51.210;2.934;2022-10-16T03:42:25;6.65;;;1.52;;
18732;SDS011;9495;51.210;2.934;2022-10-16T03:44:53;4.22;;;1.27;;
18732;SDS011;9495;51.210;2.934;2022-10-16T03:47:22;3.58;;;1.30;;
18732;SDS011;9495;51.210;2.934;2022-10-16T03:49:50;3.75;;;1.13;;
18732;SDS011;9495;51.210;2.934;2022-10-16T03:52:20;2.47;;;1.40;;
18732;SDS011;9495;51.210;2.934;2022-10-16T03:54:48;3.85;;;1.25;;
18732;SDS011;9495;51.210;2.934;2022-10-16T03:57:17;2.47;;;1.20;;
18732;SDS011;9495;51.210;2.934;2022-10-16T03:59:45;5.72;;;1.60;;
18732;SDS011;9495;51.210;2.934;2022-10-16T04:02:13;4.97;;;1.88;;
18732;SDS011;9495;51.210;2.934;2022-10-16T04:04:41;5.68;;;1.75;;
18732;SDS011;9495;51.210;2.934;2022-10-16T04:07:10;6.63;;;1.30;;
18732;SDS011;9495;51.210;2.934;2022-10-16T04:09:39;4.40;;;1.27;;
18732;SDS011;9495;51.210;2.934;2022-10-16T04:12:08;3.97;;;1.58;;
18732;SDS011;9495;51.210;2.934;2022-10-16T04:14:36;4.55;;;1.40;;
18732;SDS011;9495;51.210;2.934;2022-10-16T04:17:04;4.20;;;1.40;;
18732;SDS011;9495;51.210;2.934;2022-10-16T04:19:32;4.35;;;1.48;;
18732;SDS011;9495;51.210;2.934;2022-10-16T04:22:01;8.40;;;1.52;;
18732;SDS011;9495;51.210;2.934;2022-10-16T04:24:29;4.75;;;1.23;;
18732;SDS011;9495;51.210;2.934;2022-10-16T04:26:59;5.38;;;1.60;;
18732;SDS011;9495;51.210;2.934;2022-10-16T04:29:28;4.75;;;1.50;;
18732;SDS011;9495;51.210;2.934;2022-10-16T04:31:56;4.90;;;1.60;;
18732;SDS011;9495;51.210;2.934;2022-10-16T04:34:24;5.95;;;1.48;;
18732;SDS011;9495;51.210;2.934;2022-10-16T04:36:53;6.25;;;1.95;;
18732;SDS011;9495;51.210;2.934;2022-10-16T04:39:21;5.47;;;1.40;;
18732;SDS011;9495;51.210;2.934;2022-10-16T04:41:49;8.60;;;1.48;;
18732;SDS011;9495;51.210;2.934;2022-10-16T04:44:19;5.35;;;1.48;;
18732;SDS011;9495;51.210;2.934;2022-10-16T04:46:47;5.25;;;1.65;;
18732;SDS011;9495;51.210;2.934;2022-10-16T04:49:17;3.65;;;1.40;;
18732;SDS011;9495;51.210;2.934;2022-10-16T04:51:45;3.90;;;1.40;;
18732;SDS011;9495;51.210;2.934;2022-10-16T04:54:14;5.93;;;1.70;;
18732;SDS011;9495;51.210;2.934;2022-10-16T04:56:42;4.05;;;1.50;;
18732;SDS011;9495;51.210;2.934;2022-10-16T04:59:13;4.00;;;1.50;;
18732;SDS011;9495;51.210;2.934;2022-10-16T05:01:43;6.00;;;1.50;;
18732;SDS011;9495;51.210;2.934;2022-10-16T05:04:12;5.68;;;1.70;;
18732;SDS011;9495;51.210;2.934;2022-10-16T05:06:41;6.63;;;1.50;;
18732;SDS011;9495;51.210;2.934;2022-10-16T05:09:10;5.63;;;1.60;;
18732;SDS011;9495;51.210;2.934;2022-10-16T05:11:38;7.93;;;1.85;;
18732;SDS011;9495;51.210;2.934;2022-10-16T05:14:06;3.92;;;1.63;;
18732;SDS011;9495;51.210;2.934;2022-10-16T05:16:40;7.30;;;1.80;;
18732;SDS011;9495;51.210;2.934;2022-10-16T05:19:09;8.35;;;1.67;;
18732;SDS011;9495;51.210;2.934;2022-10-16T05:21:54;5.40;;;1.65;;
18732;SDS011;9495;51.210;2.934;2022-10-16T05:24:23;5.22;;;1.60;;
18732;SDS011;9495;51.210;2.934;2022-10-16T05:26:51;5.60;;;1.52;;
18732;SDS011;9495;51.210;2.934;2022-10-16T05:29:19;7.45;;;1.80;;
18732;SDS011;9495;51.210;2.934;2022-10-16T05:31:49;6.53;;;1.42;;
18732;SDS011;9495;51.210;2.934;2022-10-16T05:34:20;3.50;;;1.42;;
18732;SDS011;9495;51.210;2.934;2022-10-16T05:36:49;4.43;;;1.70;;
18732;SDS011;9495;51.210;2.934;2022-10-16T05:39:17;7.18;;;1.42;;
18732;SDS011;9495;51.210;2.934;2022-10-16T05:41:46;6.05;;;1.67;;
18732;SDS011;9495;51.210;2.934;2022-10-16T05:44:16;6.03;;;1.50;;
18732;SDS011;9495;51.210;2.934;2022-10-16T05:46:45;6.38;;;1.52;;
18732;SDS011;9495;51.210;2.934;2022-10-16T05:49:14;4.15;;;1.50;;
18732;SDS011;9495;51.210;2.934;2022-10-16T05:51:44;7.35;;;1.92;;
18732;SDS011;9495;51.210;2.934;2022-10-16T05:54:12;9.77;;;1.83;;
18732;SDS011;9495;51.210;2.934;2022-10-16T05:56:40;6.70;;;1.75;;
18732;SDS011;9495;51.210;2.934;2022-10-16T05:59:09;7.13;;;1.40;;
18732;SDS011;9495;51.210;2.934;2022-10-16T06:01:37;5.07;;;1.70;;
18732;SDS011;9495;51.210;2.934;2022-10-16T06:04:06;5.63;;;1.50;;
18732;SDS011;9495;51.210;2.934;2022-10-16T06:06:40;6.15;;;1.70;;
18732;SDS011;9495;51.210;2.934;2022-10-16T06:09:09;5.90;;;1.73;;
18732;SDS011;9495;51.210;2.934;2022-10-16T06:11:38;5.93;;;1.60;;
18732;SDS011;9495;51.210;2.934;2022-10-16T06:14:07;6.80;;;1.80;;
18732;SDS011;9495;51.210;2.934;2022-10-16T06:16:37;4.40;;;1.40;;
18732;SDS011;9495;51.210;2.934;2022-10-16T06:19:05;7.32;;;1.60;;
18732;SDS011;9495;51.210;2.934;2022-10-16T06:21:35;6.50;;;1.55;;
18732;SDS011;9495;51.210;2.934;2022-10-16T06:24:03;5.45;;;2.17;;
18732;SDS011;9495;51.210;2.934;2022-10-16T06:26:33;11.88;;;1.95;;
18732;SDS011;9495;51.210;2.934;2022-10-16T06:29:01;8.05;;;2.33;;
18732;SDS011;9495;51.210;2.934;2022-10-16T06:31:30;4.97;;;1.65;;
18732;SDS011;9495;51.210;2.934;2022-10-16T06:34:00;8.03;;;1.80;;
18732;SDS011;9495;51.210;2.934;2022-10-16T06:36:31;8.87;;;2.07;;
18732;SDS011;9495;51.210;2.934;2022-10-16T06:38:59;7.80;;;2.40;;
18732;SDS011;9495;51.210;2.934;2022-10-16T06:41:27;6.90;;;1.92;;
18732;SDS011;9495;51.210;2.934;2022-10-16T06:43:57;10.90;;;2.20;;
18732;SDS011;9495;51.210;2.934;2022-10-16T06:46:25;8.82;;;1.80;;
18732;SDS011;9495;51.210;2.934;2022-10-16T06:48:54;11.57;;;1.77;;
18732;SDS011;9495;51.210;2.934;2022-10-16T06:51:23;11.03;;;2.23;;
18732;SDS011;9495;51.210;2.934;2022-10-16T06:53:52;8.67;;;1.73;;
18732;SDS011;9495;51.210;2.934;2022-10-16T06:56:31;8.23;;;2.17;;
18732;SDS011;9495;51.210;2.934;2022-10-16T06:59:01;6.67;;;2.27;;
18732;SDS011;9495;51.210;2.934;2022-10-16T07:01:30;12.43;;;2.40;;
18732;SDS011;9495;51.210;2.934;2022-10-16T07:03:59;8.10;;;2.00;;
18732;SDS011;9495;51.210;2.934;2022-10-16T07:06:30;6.23;;;2.20;;
18732;SDS011;9495;51.210;2.934;2022-10-16T07:09:00;7.00;;;2.30;;
18732;SDS011;9495;51.210;2.934;2022-10-16T07:11:31;5.57;;;1.97;;
18732;SDS011;9495;51.210;2.934;2022-10-16T07:13:59;9.73;;;2.00;;
18732;SDS011;9495;51.210;2.934;2022-10-16T07:16:29;5.63;;;2.00;;
18732;SDS011;9495;51.210;2.934;2022-10-16T07:18:59;6.90;;;2.20;;
18732;SDS011;9495;51.210;2.934;2022-10-16T07:21:28;5.73;;;2.50;;
18732;SDS011;9495;51.210;2.934;2022-10-16T07:24:01;10.30;;;2.20;;
18732;SDS011;9495;51.210;2.934;2022-10-16T07:26:31;11.30;;;2.30;;
18732;SDS011;9495;51.210;2.934;2022-10-16T07:29:01;7.83;;;2.40;;
18732;SDS011;9495;51.210;2.934;2022-10-16T07:31:32;12.80;;;2.63;;
18732;SDS011;9495;51.210;2.934;2022-10-16T07:34:00;5.47;;;2.27;;
18732;SDS011;9495;51.210;2.934;2022-10-16T07:36:29;13.03;;;2.57;;
18732;SDS011;9495;51.210;2.934;2022-10-16T07:38:57;9.90;;;2.33;;
18732;SDS011;9495;51.210;2.934;2022-10-16T07:41:26;13.20;;;2.63;;
18732;SDS011;9495;51.210;2.934;2022-10-16T07:43:55;8.13;;;2.07;;
18732;SDS011;9495;51.210;2.934;2022-10-16T07:46:26;12.83;;;2.20;;
18732;SDS011;9495;51.210;2.934;2022-10-16T07:48:56;9.50;;;2.00;;
18732;SDS011;9495;51.210;2.934;2022-10-16T07:51:25;6.73;;;2.13;;
18732;SDS011;9495;51.210;2.934;2022-10-16T07:53:54;8.77;;;1.90;;
18732;SDS011;9495;51.210;2.934;2022-10-16T07:56:22;7.20;;;1.83;;
18732;SDS011;9495;51.210;2.934;2022-10-16T07:58:51;7.10;;;2.10;;
18732;SDS011;9495;51.210;2.934;2022-10-16T08:01:20;8.03;;;1.97;;
18732;SDS011;9495;51.210;2.934;2022-10-16T08:03:48;7.40;;;2.23;;
18732;SDS011;9495;51.210;2.934;2022-10-16T08:06:20;12.70;;;2.67;;
18732;SDS011;9495;51.210;2.934;2022-10-16T08:08:53;8.20;;;2.17;;
18732;SDS011;9495;51.210;2.934;2022-10-16T08:11:21;6.80;;;2.10;;
18732;SDS011;9495;51.210;2.934;2022-10-16T08:13:50;9.63;;;2.17;;
18732;SDS011;9495;51.210;2.934;2022-10-16T08:16:19;8.63;;;2.20;;
18732;SDS011;9495;51.210;2.934;2022-10-16T08:18:47;5.40;;;1.80;;
18732;SDS011;9495;51.210;2.934;2022-10-16T08:21:18;7.93;;;2.05;;
18732;SDS011;9495;51.210;2.934;2022-10-16T08:23:49;12.53;;;2.50;;
18732;SDS011;9495;51.210;2.934;2022-10-16T08:26:23;9.70;;;2.47;;
18732;SDS011;9495;51.210;2.934;2022-10-16T08:28:53;7.50;;;3.13;;
18732;SDS011;9495;51.210;2.934;2022-10-16T08:31:22;7.87;;;3.13;;
18732;SDS011;9495;51.210;2.934;2022-10-16T08:33:52;9.23;;;2.40;;
18732;SDS011;9495;51.210;2.934;2022-10-16T08:36:22;9.87;;;2.33;;
18732;SDS011;9495;51.210;2.934;2022-10-16T08:38:50;7.22;;;2.47;;
18732;SDS011;9495;51.210;2.934;2022-10-16T08:41:46;9.00;;;2.33;;
18732;SDS011;9495;51.210;2.934;2022-10-16T08:47:44;7.70;;;2.40;;
18732;SDS011;9495;51.210;2.934;2022-10-16T08:50:18;8.57;;;2.50;;
18732;SDS011;9495;51.210;2.934;2022-10-16T08:52:52;10.77;;;2.30;;
18732;SDS011;9495;51.210;2.934;2022-10-16T08:55:28;12.37;;;2.57;;
18732;SDS011;9495;51.210;2.934;2022-10-16T08:58:01;10.07;;;2.53;;
18732;SDS011;9495;51.210;2.934;2022-10-16T09:00:29;11.50;;;2.67;;
18732;SDS011;9495;51.210;2.934;2022-10-16T09:03:00;6.43;;;2.03;;
18732;SDS011;9495;51.210;2.934;2022-10-16T09:05:42;15.38;;;2.90;;
18732;SDS011;9495;51.210;2.934;2022-10-16T09:08:23;6.83;;;2.40;;
18732;SDS011;9495;51.210;2.934;2022-10-16T09:10:59;11.27;;;2.87;;
18732;SDS011;9495;51.210;2.934;2022-10-16T09:13:35;8.60;;;2.93;;
18732;SDS011;9495;51.210;2.934;2022-10-16T09:16:13;13.33;;;2.67;;
18732;SDS011;9495;51.210;2.934;2022-10-16T09:18:48;11.67;;;3.10;;
18732;SDS011;9495;51.210;2.934;2022-10-16T09:21:26;12.13;;;3.10;;
18732;SDS011;9495;51.210;2.934;2022-10-16T09:23:58;9.33;;;2.90;;
18732;SDS011;9495;51.210;2.934;2022-10-16T09:26:32;12.35;;;3.28;;
18732;SDS011;9495;51.210;2.934;2022-10-16T09:29:00;12.10;;;3.20;;
18732;SDS011;9495;51.210;2.934;2022-10-16T09:31:30;10.20;;;3.22;;
18732;SDS011;9495;51.210;2.934;2022-10-16T09:33:59;15.97;;;3.40;;
18732;SDS011;9495;51.210;2.934;2022-10-16T09:36:34;10.48;;;3.15;;
18732;SDS011;9495;51.210;2.934;2022-10-16T09:39:08;7.47;;;3.20;;
18732;SDS011;9495;51.210;2.934;2022-10-16T09:41:39;12.25;;;3.95;;
18732;SDS011;9495;51.210;2.934;2022-10-16T09:44:15;9.93;;;3.50;;
18732;SDS011;9495;51.210;2.934;2022-10-16T09:46:48;15.55;;;3.58;;
18732;SDS011;9495;51.210;2.934;2022-10-16T09:49:21;7.80;;;3.80;;
18732;SDS011;9495;51.210;2.934;2022-10-16T09:51:50;10.68;;;3.65;;
18732;SDS011;9495;51.210;2.934;2022-10-16T09:54:32;13.18;;;4.18;;
18732;SDS011;9495;51.210;2.934;2022-10-16T09:57:04;14.63;;;4.00;;
18732;SDS011;9495;51.210;2.934;2022-10-16T09:59:33;14.43;;;3.22;;
18732;SDS011;9495;51.210;2.934;2022-10-16T10:02:02;13.25;;;3.38;;
18732;SDS011;9495;51.210;2.934;2022-10-16T10:04:38;7.88;;;3.00;;
18732;SDS011;9495;51.210;2.934;2022-10-16T10:07:16;7.90;;;2.53;;
18732;SDS011;9495;51.210;2.934;2022-10-16T10:09:49;10.48;;;3.28;;
18732;SDS011;9495;51.210;2.934;2022-10-16T10:12:17;13.93;;;2.83;;
18732;SDS011;9495;51.210;2.934;2022-10-16T10:14:52;9.48;;;2.35;;
18732;SDS011;9495;51.210;2.934;2022-10-16T10:17:23;8.95;;;2.15;;
18732;SDS011;9495;51.210;2.934;2022-10-16T10:19:53;9.93;;;2.83;;
18732;SDS011;9495;51.210;2.934;2022-10-16T10:22:26;8.10;;;2.70;;
18732;SDS011;9495;51.210;2.934;2022-10-16T10:27:49;5.88;;;2.42;;
18732;SDS011;9495;51.210;2.934;2022-10-16T10:30:29;11.52;;;2.90;;
18732;SDS011;9495;51.210;2.934;2022-10-16T10:33:22;10.45;;;2.50;;
18732;SDS011;9495;51.210;2.934;2022-10-16T10:35:57;11.45;;;2.50;;
18732;SDS011;9495;51.210;2.934;2022-10-16T10:38:38;9.45;;;3.05;;
18732;SDS011;9495;51.210;2.934;2022-10-16T10:41:33;9.82;;;2.65;;
18732;SDS011;9495;51.210;2.934;2022-10-16T10:44:26;10.27;;;2.45;;
18732;SDS011;9495;51.210;2.934;2022-10-16T10:47:05;19.17;;;2.85;;
18732;SDS011;9495;51.210;2.934;2022-10-16T10:49:48;16.20;;;2.80;;
18732;SDS011;9495;51.210;2.934;2022-10-16T10:52:34;14.80;;;3.05;;
18732;SDS011;9495;51.210;2.934;2022-10-16T10:55:15;12.85;;;3.15;;
18732;SDS011;9495;51.210;2.934;2022-10-16T10:57:54;13.77;;;3.20;;
18732;SDS011;9495;51.210;2.934;2022-10-16T11:00:37;14.23;;;3.10;;
18732;SDS011;9495;51.210;2.934;2022-10-16T11:03:13;14.50;;;2.88;;
18732;SDS011;9495;51.210;2.934;2022-10-16T11:05:57;18.23;;;2.90;;
18732;SDS011;9495;51.210;2.934;2022-10-16T11:08:28;14.60;;;2.70;;
18732;SDS011;9495;51.210;2.934;2022-10-16T11:11:01;14.70;;;3.10;;
18732;SDS011;9495;51.210;2.934;2022-10-16T11:13:35;12.20;;;2.58;;
18732;SDS011;9495;51.210;2.934;2022-10-16T11:16:11;11.57;;;2.47;;
18732;SDS011;9495;51.210;2.934;2022-10-16T11:18:48;14.07;;;2.50;;
18732;SDS011;9495;51.210;2.934;2022-10-16T11:21:19;18.30;;;2.72;;
18732;SDS011;9495;51.210;2.934;2022-10-16T11:23:57;15.05;;;2.45;;
18732;SDS011;9495;51.210;2.934;2022-10-16T11:26:33;11.32;;;2.50;;
18732;SDS011;9495;51.210;2.934;2022-10-16T11:29:10;14.00;;;2.53;;
18732;SDS011;9495;51.210;2.934;2022-10-16T11:31:46;17.75;;;2.92;;
18732;SDS011;9495;51.210;2.934;2022-10-16T11:34:17;11.38;;;2.75;;
18732;SDS011;9495;51.210;2.934;2022-10-16T11:36:53;12.27;;;2.67;;
18732;SDS011;9495;51.210;2.934;2022-10-16T11:39:27;15.35;;;2.70;;
18732;SDS011;9495;51.210;2.934;2022-10-16T11:41:58;14.38;;;3.03;;
18732;SDS011;9495;51.210;2.934;2022-10-16T11:44:36;11.93;;;2.85;;
18732;SDS011;9495;51.210;2.934;2022-10-16T11:47:23;8.98;;;2.88;;
18732;SDS011;9495;51.210;2.934;2022-10-16T11:50:20;13.75;;;2.97;;
18732;SDS011;9495;51.210;2.934;2022-10-16T11:52:53;11.57;;;2.20;;
18732;SDS011;9495;51.210;2.934;2022-10-16T11:55:29;23.33;;;4.55;;
18732;SDS011;9495;51.210;2.934;2022-10-16T11:58:03;15.73;;;2.85;;
18732;SDS011;9495;51.210;2.934;2022-10-16T12:00:37;12.43;;;2.25;;
18732;SDS011;9495;51.210;2.934;2022-10-16T12:03:12;14.57;;;2.67;;
18732;SDS011;9495;51.210;2.934;2022-10-16T12:05:52;17.02;;;2.67;;
18732;SDS011;9495;51.210;2.934;2022-10-16T12:08:27;13.57;;;2.90;;
18732;SDS011;9495;51.210;2.934;2022-10-16T12:11:05;13.77;;;2.67;;
18732;SDS011;9495;51.210;2.934;2022-10-16T12:13:35;13.32;;;2.72;;
18732;SDS011;9495;51.210;2.934;2022-10-16T12:16:21;12.05;;;2.30;;
18732;SDS011;9495;51.210;2.934;2022-10-16T12:19:02;13.80;;;2.40;;
18732;SDS011;9495;51.210;2.934;2022-10-16T12:21:38;18.65;;;3.22;;
18732;SDS011;9495;51.210;2.934;2022-10-16T12:24:06;10.30;;;2.47;;
18732;SDS011;9495;51.210;2.934;2022-10-16T12:26:49;15.40;;;2.53;;
18732;SDS011;9495;51.210;2.934;2022-10-16T12:29:23;11.07;;;2.60;;
18732;SDS011;9495;51.210;2.934;2022-10-16T12:32:01;9.25;;;2.13;;
18732;SDS011;9495;51.210;2.934;2022-10-16T12:34:34;14.02;;;2.30;;
18732;SDS011;9495;51.210;2.934;2022-10-16T12:37:10;14.05;;;2.65;;
18732;SDS011;9495;51.210;2.934;2022-10-16T12:39:42;16.13;;;2.60;;
18732;SDS011;9495;51.210;2.934;2022-10-16T12:42:20;12.43;;;2.42;;
18732;SDS011;9495;51.210;2.934;2022-10-16T12:44:51;12.88;;;2.65;;
18732;SDS011;9495;51.210;2.934;2022-10-16T12:47:22;15.60;;;3.30;;
18732;SDS011;9495;51.210;2.934;2022-10-16T12:50:02;13.70;;;2.95;;
18732;SDS011;9495;51.210;2.934;2022-10-16T12:52:50;11.98;;;2.15;;
18732;SDS011;9495;51.210;2.934;2022-10-16T12:55:18;11.20;;;2.22;;
18732;SDS011;9495;51.210;2.934;2022-10-16T12:57:55;14.20;;;2.50;;
18732;SDS011;9495;51.210;2.934;2022-10-16T13:00:39;14.32;;;2.88;;
18732;SDS011;9495;51.210;2.934;2022-10-16T13:03:33;13.85;;;2.13;;
18732;SDS011;9495;51.210;2.934;2022-10-16T13:06:23;13.27;;;2.60;;
18732;SDS011;9495;51.210;2.934;2022-10-16T13:09:11;9.38;;;2.05;;
18732;SDS011;9495;51.210;2.934;2022-10-16T13:15:01;11.77;;;2.10;;
18732;SDS011;9495;51.210;2.934;2022-10-16T13:17:52;13.35;;;2.20;;
18732;SDS011;9495;51.210;2.934;2022-10-16T13:20:28;11.30;;;2.20;;
18732;SDS011;9495;51.210;2.934;2022-10-16T13:23:08;13.15;;;2.67;;
18732;SDS011;9495;51.210;2.934;2022-10-16T13:25:48;11.98;;;1.90;;
18732;SDS011;9495;51.210;2.934;2022-10-16T13:28:27;11.35;;;2.22;;
18732;SDS011;9495;51.210;2.934;2022-10-16T13:30:58;13.68;;;2.50;;
18732;SDS011;9495;51.210;2.934;2022-10-16T13:33:30;12.18;;;2.50;;
18732;SDS011;9495;51.210;2.934;2022-10-16T13:36:03;10.68;;;2.28;;
18732;SDS011;9495;51.210;2.934;2022-10-16T13:38:33;9.25;;;2.08;;
18732;SDS011;9495;51.210;2.934;2022-10-16T13:41:03;10.82;;;1.70;;
18732;SDS011;9495;51.210;2.934;2022-10-16T13:43:34;7.63;;;1.83;;
18732;SDS011;9495;51.210;2.934;2022-10-16T13:46:04;7.10;;;1.70;;
18732;SDS011;9495;51.210;2.934;2022-10-16T13:48:35;10.40;;;2.10;;
18732;SDS011;9495;51.210;2.934;2022-10-16T13:51:06;6.13;;;1.55;;
18732;SDS011;9495;51.210;2.934;2022-10-16T13:53:39;9.15;;;2.47;;
18732;SDS011;9495;51.210;2.934;2022-10-16T13:56:10;7.15;;;1.38;;
18732;SDS011;9495;51.210;2.934;2022-10-16T13:58:39;7.28;;;1.55;;
18732;SDS011;9495;51.210;2.934;2022-10-16T14:01:15;8.45;;;1.80;;
18732;SDS011;9495;51.210;2.934;2022-10-16T14:03:45;9.27;;;1.60;;
18732;SDS011;9495;51.210;2.934;2022-10-16T14:06:16;8.73;;;2.00;;
18732;SDS011;9495;51.210;2.934;2022-10-16T14:08:48;5.95;;;1.67;;
18732;SDS011;9495;51.210;2.934;2022-10-16T14:11:22;10.43;;;2.47;;
18732;SDS011;9495;51.210;2.934;2022-10-16T14:13:51;10.05;;;1.73;;
18732;SDS011;9495;51.210;2.934;2022-10-16T14:16:21;13.52;;;1.95;;
18732;SDS011;9495;51.210;2.934;2022-10-16T14:18:55;6.05;;;1.92;;
18732;SDS011;9495;51.210;2.934;2022-10-16T14:21:27;9.07;;;2.08;;
18732;SDS011;9495;51.210;2.934;2022-10-16T14:23:56;10.40;;;2.30;;
18732;SDS011;9495;51.210;2.934;2022-10-16T14:26:26;9.43;;;2.47;;
18732;SDS011;9495;51.210;2.934;2022-10-16T14:29:02;9.65;;;2.20;;
18732;SDS011;9495;51.210;2.934;2022-10-16T14:31:38;6.32;;;2.17;;
18732;SDS011;9495;51.210;2.934;2022-10-16T14:36:56;9.98;;;2.38;;
18732;SDS011;9495;51.210;2.934;2022-10-16T14:39:27;8.10;;;2.38;;
18732;SDS011;9495;51.210;2.934;2022-10-16T14:41:56;7.72;;;2.25;;
18732;SDS011;9495;51.210;2.934;2022-10-16T14:44:30;9.27;;;2.40;;
18732;SDS011;9495;51.210;2.934;2022-10-16T14:47:06;8.45;;;1.75;;
18732;SDS011;9495;51.210;2.934;2022-10-16T14:49:36;8.02;;;2.20;;
18732;SDS011;9495;51.210;2.934;2022-10-16T14:52:09;9.40;;;2.20;;
18732;SDS011;9495;51.210;2.934;2022-10-16T14:54:38;11.15;;;2.00;;
18732;SDS011;9495;51.210;2.934;2022-10-16T14:57:14;6.00;;;1.95;;
18732;SDS011;9495;51.210;2.934;2022-10-16T14:59:45;5.57;;;2.30;;
18732;SDS011;9495;51.210;2.934;2022-10-16T15:02:16;7.63;;;1.63;;
18732;SDS011;9495;51.210;2.934;2022-10-16T15:04:49;6.82;;;2.00;;
18732;SDS011;9495;51.210;2.934;2022-10-16T15:07:19;7.75;;;1.98;;
18732;SDS011;9495;51.210;2.934;2022-10-16T15:09:48;8.38;;;2.30;;
18732;SDS011;9495;51.210;2.934;2022-10-16T15:12:16;5.15;;;2.00;;
18732;SDS011;9495;51.210;2.934;2022-10-16T15:14:45;7.40;;;1.95;;
18732;SDS011;9495;51.210;2.934;2022-10-16T15:17:13;6.03;;;2.08;;
18732;SDS011;9495;51.210;2.934;2022-10-16T15:19:45;6.35;;;1.70;;
18732;SDS011;9495;51.210;2.934;2022-10-16T15:22:13;8.15;;;2.60;;
18732;SDS011;9495;51.210;2.934;2022-10-16T15:24:43;5.18;;;2.30;;
18732;SDS011;9495;51.210;2.934;2022-10-16T15:27:11;8.85;;;2.78;;
18732;SDS011;9495;51.210;2.934;2022-10-16T15:29:39;7.45;;;2.10;;
18732;SDS011;9495;51.210;2.934;2022-10-16T15:32:08;8.77;;;2.83;;
18732;SDS011;9495;51.210;2.934;2022-10-16T15:34:36;7.50;;;2.78;;
18732;SDS011;9495;51.210;2.934;2022-10-16T15:37:05;6.03;;;2.60;;
18732;SDS011;9495;51.210;2.934;2022-10-16T15:39:33;9.18;;;2.97;;